sensor_id;sensor_type;location;lat;lon;timestamp;pressure;altitude;pressure_sealevel;temperature;humidity
35577;BME280;21680;52.400;16.920;2022-07-29T00:00:59;101155.06;;;16.83;45.26
35577;BME280;21680;52.400;16.920;2022-07-29T00:03:26;101149.06;;;16.78;45.45
35577;BME280;21680;52.400;16.920;2022-07-29T00:05:52;101152.05;;;16.73;45.67
35577;BME280;21680;52.400;16.920;2022-07-29T00:08:18;101157.26;;;16.69;45.87
35577;BME280;21680;52.400;16.920;2022-07-29T00:10:45;101160.24;;;16.65;46.05
35577;BME280;21680;52.400;16.920;2022-07-29T00:13:14;101161.98;;;16.66;46.17
35577;BME280;21680;52.400;16.920;2022-07-29T00:15:40;101160.39;;;16.62;46.29
35577;BME280;21680;52.400;16.920;2022-07-29T00:18:06;101163.28;;;16.59;46.38
35577;BME280;21680;52.400;16.920;2022-07-29T00:20:32;101159.31;;;16.57;46.49
35577;BME280;21680;52.400;16.920;2022-07-29T00:22:58;101162.98;;;16.56;46.58
35577;BME280;21680;52.400;16.920;2022-07-29T00:25:24;101161.91;;;16.51;46.62
35577;BME280;21680;52.400;16.920;2022-07-29T00:27:50;101164.89;;;16.47;46.67
35577;BME280;21680;52.400;16.920;2022-07-29T00:30:16;101169.22;;;16.42;46.78
35577;BME280;21680;52.400;16.920;2022-07-29T00:32:41;101167.66;;;16.38;46.91
35577;BME280;21680;52.400;16.920;2022-07-29T00:35:08;101166.48;;;16.35;47.03
35577;BME280;21680;52.400;16.920;2022-07-29T00:37:52;101159.70;;;16.28;47.20
35577;BME280;21680;52.400;16.920;2022-07-29T00:40:18;101156.48;;;16.21;47.51
35577;BME280;21680;52.400;16.920;2022-07-29T00:42:45;101158.58;;;16.16;47.65
35577;BME280;21680;52.400;16.920;2022-07-29T00:45:14;101165.13;;;16.12;47.90
35577;BME280;21680;52.400;16.920;2022-07-29T00:47:40;101165.61;;;16.12;47.99
35577;BME280;21680;52.400;16.920;2022-07-29T00:50:08;101161.16;;;16.11;48.07
35577;BME280;21680;52.400;16.920;2022-07-29T00:52:37;101163.17;;;16.07;48.27
35577;BME280;21680;52.400;16.920;2022-07-29T00:55:05;101155.33;;;16.03;48.39
35577;BME280;21680;52.400;16.920;2022-07-29T00:57:34;101157.42;;;15.98;48.57
35577;BME280;21680;52.400;16.920;2022-07-29T01:00:03;101161.34;;;15.92;48.76
35577;BME280;21680;52.400;16.920;2022-07-29T01:02:30;101157.86;;;15.90;48.91
35577;BME280;21680;52.400;16.920;2022-07-29T01:04:56;101166.23;;;15.85;49.06
35577;BME280;21680;52.400;16.920;2022-07-29T01:07:24;101161.96;;;15.81;49.26
35577;BME280;21680;52.400;16.920;2022-07-29T01:09:52;101166.50;;;15.81;49.45
35577;BME280;21680;52.400;16.920;2022-07-29T01:12:24;101163.48;;;15.78;49.58
35577;BME280;21680;52.400;16.920;2022-07-29T01:14:52;101160.56;;;15.74;49.87
35577;BME280;21680;52.400;16.920;2022-07-29T01:17:41;101164.79;;;15.71;50.04
35577;BME280;21680;52.400;16.920;2022-07-29T01:23:15;101163.09;;;15.62;50.45
35577;BME280;21680;52.400;16.920;2022-07-29T01:26:12;101157.06;;;15.56;50.65
35577;BME280;21680;52.400;16.920;2022-07-29T01:31:41;101161.55;;;15.49;51.21
35577;BME280;21680;52.400;16.920;2022-07-29T01:34:18;101159.80;;;15.48;51.37
35577;BME280;21680;52.400;16.920;2022-07-29T01:36:48;101156.96;;;15.42;51.63
35577;BME280;21680;52.400;16.920;2022-07-29T01:39:27;101150.94;;;15.37;51.97
35577;BME280;21680;52.400;16.920;2022-07-29T01:42:01;101156.68;;;15.31;52.29
35577;BME280;21680;52.400;16.920;2022-07-29T01:44:46;101148.27;;;15.29;52.43
35577;BME280;21680;52.400;16.920;2022-07-29T01:47:26;101146.69;;;15.24;52.78
35577;BME280;21680;52.400;16.920;2022-07-29T01:50:01;101140.50;;;15.22;52.95
35577;BME280;21680;52.400;16.920;2022-07-29T01:52:49;101142.02;;;15.19;53.21
35577;BME280;21680;52.400;16.920;2022-07-29T01:55:31;101140.83;;;15.16;53.54
35577;BME280;21680;52.400;16.920;2022-07-29T01:58:01;101137.91;;;15.12;53.81
35577;BME280;21680;52.400;16.920;2022-07-29T02:00:29;101134.98;;;15.08;54.02
35577;BME280;21680;52.400;16.920;2022-07-29T02:02:59;101136.89;;;15.06;54.28
35577;BME280;21680;52.400;16.920;2022-07-29T02:05:28;101143.02;;;15.01;54.54
35577;BME280;21680;52.400;16.920;2022-07-29T02:07:57;101139.85;;;14.93;54.91
35577;BME280;21680;52.400;16.920;2022-07-29T02:10:26;101139.38;;;14.93;55.01
35577;BME280;21680;52.400;16.920;2022-07-29T02:12:54;101143.11;;;14.91;55.23
35577;BME280;21680;52.400;16.920;2022-07-29T02:15:26;101139.53;;;14.90;55.50
35577;BME280;21680;52.400;16.920;2022-07-29T02:18:02;101139.45;;;14.92;55.69
35577;BME280;21680;52.400;16.920;2022-07-29T02:20:33;101132.88;;;14.89;55.92
35577;BME280;21680;52.400;16.920;2022-07-29T02:23:00;101121.77;;;14.86;56.22
35577;BME280;21680;52.400;16.920;2022-07-29T02:25:27;101122.63;;;14.87;56.41
35577;BME280;21680;52.400;16.920;2022-07-29T02:27:55;101128.03;;;14.87;56.71
35577;BME280;21680;52.400;16.920;2022-07-29T02:30:23;101125.10;;;14.83;56.84
35577;BME280;21680;52.400;16.920;2022-07-29T02:32:50;101129.31;;;14.80;57.07
35577;BME280;21680;52.400;16.920;2022-07-29T02:35:21;101124.08;;;14.77;57.43
35577;BME280;21680;52.400;16.920;2022-07-29T02:37:48;101121.46;;;14.75;57.61
35577;BME280;21680;52.400;16.920;2022-07-29T02:40:17;101121.06;;;14.74;57.89
35577;BME280;21680;52.400;16.920;2022-07-29T02:42:44;101126.55;;;14.73;58.01
35577;BME280;21680;52.400;16.920;2022-07-29T02:45:11;101123.69;;;14.67;58.24
35577;BME280;21680;52.400;16.920;2022-07-29T02:47:43;101134.09;;;14.66;58.38
35577;BME280;21680;52.400;16.920;2022-07-29T02:50:15;101123.77;;;14.66;58.57
35577;BME280;21680;52.400;16.920;2022-07-29T02:52:55;101123.45;;;14.63;58.78
35577;BME280;21680;52.400;16.920;2022-07-29T02:55:36;101122.11;;;14.63;58.97
35577;BME280;21680;52.400;16.920;2022-07-29T02:58:25;101122.75;;;14.59;59.09
35577;BME280;21680;52.400;16.920;2022-07-29T03:01:01;101118.47;;;14.55;59.38
35577;BME280;21680;52.400;16.920;2022-07-29T03:03:34;101113.62;;;14.53;59.70
35577;BME280;21680;52.400;16.920;2022-07-29T03:06:02;101116.48;;;14.50;59.80
35577;BME280;21680;52.400;16.920;2022-07-29T03:08:29;101115.53;;;14.51;60.04
35577;BME280;21680;52.400;16.920;2022-07-29T03:10:57;101114.18;;;14.51;60.13
35577;BME280;21680;52.400;16.920;2022-07-29T03:13:24;101114.66;;;14.51;60.22
35577;BME280;21680;52.400;16.920;2022-07-29T03:15:51;101114.73;;;14.49;60.29
35577;BME280;21680;52.400;16.920;2022-07-29T03:18:21;101114.26;;;14.50;60.41
35577;BME280;21680;52.400;16.920;2022-07-29T03:20:47;101109.10;;;14.45;60.61
35577;BME280;21680;52.400;16.920;2022-07-29T03:23:19;101108.23;;;14.45;60.69
35577;BME280;21680;52.400;16.920;2022-07-29T03:25:49;101108.39;;;14.42;60.86
35577;BME280;21680;52.400;16.920;2022-07-29T03:28:16;101116.53;;;14.40;60.99
35577;BME280;21680;52.400;16.920;2022-07-29T03:30:42;101108.44;;;14.40;61.18
35577;BME280;21680;52.400;16.920;2022-07-29T03:33:08;101110.19;;;14.41;61.29
35577;BME280;21680;52.400;16.920;2022-07-29T03:35:34;101108.31;;;14.43;61.34
35577;BME280;21680;52.400;16.920;2022-07-29T03:37:59;101109.58;;;14.45;61.41
35577;BME280;21680;52.400;16.920;2022-07-29T03:40:35;101117.83;;;14.42;61.57
35577;BME280;21680;52.400;16.920;2022-07-29T03:43:03;101120.58;;;14.40;61.73
35577;BME280;21680;52.400;16.920;2022-07-29T03:45:32;101118.35;;;14.40;61.81
35577;BME280;21680;52.400;16.920;2022-07-29T03:48:01;101121.13;;;14.38;61.97
35577;BME280;21680;52.400;16.920;2022-07-29T03:50:30;101118.43;;;14.38;62.20
35577;BME280;21680;52.400;16.920;2022-07-29T03:52:57;101115.58;;;14.41;62.19
35577;BME280;21680;52.400;16.920;2022-07-29T03:55:24;101106.48;;;14.44;62.27
35577;BME280;21680;52.400;16.920;2022-07-29T03:57:52;101104.34;;;14.42;62.37
35577;BME280;21680;52.400;16.920;2022-07-29T04:00:22;101111.96;;;14.42;62.49
35577;BME280;21680;52.400;16.920;2022-07-29T04:02:49;101115.13;;;14.42;62.67
35577;BME280;21680;52.400;16.920;2022-07-29T04:05:17;101120.05;;;14.42;62.56
35577;BME280;21680;52.400;16.920;2022-07-29T04:07:44;101119.50;;;14.44;62.65
35577;BME280;21680;52.400;16.920;2022-07-29T04:10:11;101123.94;;;14.45;62.75
35577;BME280;21680;52.400;16.920;2022-07-29T04:12:37;101118.78;;;14.49;62.74
35577;BME280;21680;52.400;16.920;2022-07-29T04:15:04;101124.41;;;14.53;62.81
35577;BME280;21680;52.400;16.920;2022-07-29T04:17:31;101128.70;;;14.57;62.89
35577;BME280;21680;52.400;16.920;2022-07-29T04:19:56;101132.98;;;14.61;62.80
35577;BME280;21680;52.400;16.920;2022-07-29T04:22:22;101133.45;;;14.61;62.97
35577;BME280;21680;52.400;16.920;2022-07-29T04:24:48;101132.73;;;14.66;63.00
35577;BME280;21680;52.400;16.920;2022-07-29T04:27:14;101132.27;;;14.67;63.02
35577;BME280;21680;52.400;16.920;2022-07-29T04:29:40;101140.03;;;14.73;63.11
35577;BME280;21680;52.400;16.920;2022-07-29T04:32:06;101145.11;;;14.79;63.17
35577;BME280;21680;52.400;16.920;2022-07-29T04:34:32;101147.48;;;14.85;63.21
35577;BME280;21680;52.400;16.920;2022-07-29T04:36:58;101146.20;;;14.92;63.11
35577;BME280;21680;52.400;16.920;2022-07-29T04:39:24;101145.56;;;14.96;63.05
35577;BME280;21680;52.400;16.920;2022-07-29T04:41:51;101145.40;;;14.99;63.12
35577;BME280;21680;52.400;16.920;2022-07-29T04:44:17;101146.81;;;15.06;63.09
35577;BME280;21680;52.400;16.920;2022-07-29T04:46:43;101150.22;;;15.09;63.11
35577;BME280;21680;52.400;16.920;2022-07-29T04:49:09;101149.09;;;15.13;63.07
35577;BME280;21680;52.400;16.920;2022-07-29T04:51:34;101146.23;;;15.16;63.12
35577;BME280;21680;52.400;16.920;2022-07-29T04:54:00;101144.55;;;15.22;63.10
35577;BME280;21680;52.400;16.920;2022-07-29T04:56:27;101140.81;;;15.25;63.08
35577;BME280;21680;52.400;16.920;2022-07-29T04:58:52;101138.64;;;15.32;63.11
35577;BME280;21680;52.400;16.920;2022-07-29T05:01:19;101142.05;;;15.35;63.09
35577;BME280;21680;52.400;16.920;2022-07-29T05:03:45;101139.09;;;15.40;63.07
35577;BME280;21680;52.400;16.920;2022-07-29T05:06:11;101142.33;;;15.46;63.04
35577;BME280;21680;52.400;16.920;2022-07-29T05:08:37;101139.37;;;15.51;62.96
35577;BME280;21680;52.400;16.920;2022-07-29T05:11:06;101139.59;;;15.55;62.92
35577;BME280;21680;52.400;16.920;2022-07-29T05:13:32;101137.14;;;15.59;62.92
35577;BME280;21680;52.400;16.920;2022-07-29T05:15:59;101129.70;;;15.63;62.91
35577;BME280;21680;52.400;16.920;2022-07-29T05:18:25;101129.44;;;15.67;62.90
35577;BME280;21680;52.400;16.920;2022-07-29T05:20:51;101122.73;;;15.74;62.90
35577;BME280;21680;52.400;16.920;2022-07-29T05:23:17;101128.17;;;15.81;62.87
35577;BME280;21680;52.400;16.920;2022-07-29T05:25:43;101130.34;;;15.90;62.81
35577;BME280;21680;52.400;16.920;2022-07-29T05:28:09;101140.62;;;16.00;62.77
35577;BME280;21680;52.400;16.920;2022-07-29T05:30:35;101132.95;;;16.08;62.71
35577;BME280;21680;52.400;16.920;2022-07-29T05:33:01;101137.03;;;16.15;62.63
35577;BME280;21680;52.400;16.920;2022-07-29T05:35:27;101142.08;;;16.21;62.55
35577;BME280;21680;52.400;16.920;2022-07-29T05:37:52;101142.20;;;16.27;62.54
35577;BME280;21680;52.400;16.920;2022-07-29T05:40:18;101143.49;;;16.35;62.47
35577;BME280;21680;52.400;16.920;2022-07-29T05:42:45;101144.78;;;16.44;62.39
35577;BME280;21680;52.400;16.920;2022-07-29T05:45:11;101146.06;;;16.52;62.28
35577;BME280;21680;52.400;16.920;2022-07-29T05:47:37;101144.43;;;16.57;62.24
35577;BME280;21680;52.400;16.920;2022-07-29T05:50:03;101143.03;;;16.66;62.20
35577;BME280;21680;52.400;16.920;2022-07-29T05:52:30;101143.83;;;16.75;62.12
35577;BME280;21680;52.400;16.920;2022-07-29T05:54:56;101136.02;;;16.84;62.06
35577;BME280;21680;52.400;16.920;2022-07-29T05:57:23;101135.06;;;16.93;61.97
35577;BME280;21680;52.400;16.920;2022-07-29T05:59:50;101136.33;;;17.01;61.89
35577;BME280;21680;52.400;16.920;2022-07-29T06:02:16;101135.75;;;17.10;61.79
35577;BME280;21680;52.400;16.920;2022-07-29T06:04:43;101133.44;;;17.18;61.69
35577;BME280;21680;52.400;16.920;2022-07-29T06:07:09;101137.59;;;17.24;61.58
35577;BME280;21680;52.400;16.920;2022-07-29T06:09:36;101131.20;;;17.32;61.54
35577;BME280;21680;52.400;16.920;2022-07-29T06:12:03;101129.75;;;17.41;61.46
35577;BME280;21680;52.400;16.920;2022-07-29T06:14:29;101121.03;;;17.50;61.34
35577;BME280;21680;52.400;16.920;2022-07-29T06:16:55;101120.81;;;17.60;61.28
35577;BME280;21680;52.400;16.920;2022-07-29T06:19:21;101116.19;;;17.69;61.14
35577;BME280;21680;52.400;16.920;2022-07-29T06:21:47;101120.03;;;17.79;61.01
35577;BME280;21680;52.400;16.920;2022-07-29T06:24:15;101122.63;;;17.88;60.92
35577;BME280;21680;52.400;16.920;2022-07-29T06:26:41;101115.13;;;17.99;60.79
35577;BME280;21680;52.400;16.920;2022-07-29T06:29:09;101114.03;;;18.08;60.63
35577;BME280;21680;52.400;16.920;2022-07-29T06:31:37;101118.59;;;18.21;60.49
35577;BME280;21680;52.400;16.920;2022-07-29T06:34:04;101122.98;;;18.36;60.36
35577;BME280;21680;52.400;16.920;2022-07-29T06:36:30;101128.06;;;18.47;60.16
35577;BME280;21680;52.400;16.920;2022-07-29T06:38:58;101126.27;;;18.61;59.97
35577;BME280;21680;52.400;16.920;2022-07-29T06:41:24;101126.78;;;18.73;59.80
35577;BME280;21680;52.400;16.920;2022-07-29T06:43:51;101127.17;;;18.87;59.65
35577;BME280;21680;52.400;16.920;2022-07-29T06:46:18;101118.54;;;19.00;59.42
35577;BME280;21680;52.400;16.920;2022-07-29T06:48:45;101120.44;;;19.18;59.18
35577;BME280;21680;52.400;16.920;2022-07-29T06:51:11;101120.09;;;19.35;58.82
35577;BME280;21680;52.400;16.920;2022-07-29T06:53:38;101123.84;;;19.52;58.53
35577;BME280;21680;52.400;16.920;2022-07-29T06:56:05;101118.27;;;19.66;58.26
35577;BME280;21680;52.400;16.920;2022-07-29T06:58:34;101111.31;;;19.81;58.00
35577;BME280;21680;52.400;16.920;2022-07-29T07:01:03;101112.02;;;19.95;57.63
35577;BME280;21680;52.400;16.920;2022-07-29T07:03:30;101106.28;;;20.11;57.35
35577;BME280;21680;52.400;16.920;2022-07-29T07:05:57;101110.21;;;20.31;57.08
35577;BME280;21680;52.400;16.920;2022-07-29T07:08:26;101114.16;;;20.51;56.73
35577;BME280;21680;52.400;16.920;2022-07-29T07:10:52;101105.80;;;20.70;56.21
35577;BME280;21680;52.400;16.920;2022-07-29T07:13:19;101105.30;;;20.88;55.89
35577;BME280;21680;52.400;16.920;2022-07-29T07:15:45;101103.84;;;21.06;55.54
35577;BME280;21680;52.400;16.920;2022-07-29T07:18:13;101097.81;;;21.25;55.14
35577;BME280;21680;52.400;16.920;2022-07-29T07:20:40;101090.86;;;21.43;54.83
35577;BME280;21680;52.400;16.920;2022-07-29T07:23:07;101092.82;;;21.63;54.41
35577;BME280;21680;52.400;16.920;2022-07-29T07:25:32;101088.07;;;21.82;54.01
35577;BME280;21680;52.400;16.920;2022-07-29T07:27:59;101088.39;;;22.00;53.61
35577;BME280;21680;52.400;16.920;2022-07-29T07:30:26;101089.86;;;22.15;53.24
35577;BME280;21680;52.400;16.920;2022-07-29T07:32:53;101086.82;;;22.29;52.90
35577;BME280;21680;52.400;16.920;2022-07-29T07:35:21;101083.02;;;22.47;51.89
35577;BME280;21680;52.400;16.920;2022-07-29T07:37:47;101083.02;;;22.47;51.89
35577;BME280;21680;52.400;16.920;2022-07-29T07:40:13;101091.91;;;22.55;51.74
35577;BME280;21680;52.400;16.920;2022-07-29T07:42:41;101089.65;;;22.60;51.38
35577;BME280;21680;52.400;16.920;2022-07-29T07:45:09;101100.67;;;22.64;51.01
35577;BME280;21680;52.400;16.920;2022-07-29T07:47:36;101101.37;;;22.72;50.88
35577;BME280;21680;52.400;16.920;2022-07-29T07:50:07;101103.20;;;22.82;50.51
35577;BME280;21680;52.400;16.920;2022-07-29T07:52:45;101096.94;;;22.91;50.19
35577;BME280;21680;52.400;16.920;2022-07-29T07:55:11;101096.76;;;22.98;49.88
35577;BME280;21680;52.400;16.920;2022-07-29T07:57:37;101098.77;;;22.96;49.50
35577;BME280;21680;52.400;16.920;2022-07-29T08:00:04;101101.27;;;22.94;49.15
35577;BME280;21680;52.400;16.920;2022-07-29T08:02:31;101098.16;;;22.93;48.88
35577;BME280;21680;52.400;16.920;2022-07-29T08:04:57;101097.39;;;22.96;48.67
35577;BME280;21680;52.400;16.920;2022-07-29T08:07:24;101094.39;;;22.99;48.42
35577;BME280;21680;52.400;16.920;2022-07-29T08:09:51;101096.45;;;23.07;48.26
35577;BME280;21680;52.400;16.920;2022-07-29T08:12:17;101105.34;;;23.15;47.99
35577;BME280;21680;52.400;16.920;2022-07-29T08:14:42;101104.80;;;23.21;47.85
35577;BME280;21680;52.400;16.920;2022-07-29T08:17:08;101105.02;;;23.23;47.57
35577;BME280;21680;52.400;16.920;2022-07-29T08:19:34;101106.62;;;23.26;47.41
35577;BME280;21680;52.400;16.920;2022-07-29T08:22:00;101111.67;;;23.30;47.27
35577;BME280;21680;52.400;16.920;2022-07-29T08:24:26;101118.20;;;23.39;47.16
35577;BME280;21680;52.400;16.920;2022-07-29T08:27:13;101115.02;;;23.44;46.89
35577;BME280;21680;52.400;16.920;2022-07-29T08:29:39;101121.42;;;23.54;46.79
35577;BME280;21680;52.400;16.920;2022-07-29T08:32:06;101122.23;;;23.60;46.55
35577;BME280;21680;52.400;16.920;2022-07-29T08:34:32;101117.21;;;23.65;46.44
35577;BME280;21680;52.400;16.920;2022-07-29T08:36:58;101121.71;;;23.76;46.34
35577;BME280;21680;52.400;16.920;2022-07-29T08:39:24;101122.16;;;23.81;45.96
35577;BME280;21680;52.400;16.920;2022-07-29T08:41:51;101125.98;;;23.84;45.86
35577;BME280;21680;52.400;16.920;2022-07-29T08:44:19;101124.05;;;23.90;45.66
35577;BME280;21680;52.400;16.920;2022-07-29T08:46:47;101121.59;;;23.87;45.30
35577;BME280;21680;52.400;16.920;2022-07-29T08:49:15;101120.64;;;23.82;45.13
35577;BME280;21680;52.400;16.920;2022-07-29T08:51:43;101118.49;;;23.86;45.13
35577;BME280;21680;52.400;16.920;2022-07-29T08:54:09;101123.48;;;23.96;45.03
35577;BME280;21680;52.400;16.920;2022-07-29T08:56:36;101120.05;;;24.04;44.82
35577;BME280;21680;52.400;16.920;2022-07-29T08:59:04;101112.55;;;24.06;44.65
35577;BME280;21680;52.400;16.920;2022-07-29T09:01:33;101113.56;;;24.05;44.38
35577;BME280;21680;52.400;16.920;2022-07-29T09:04:01;101110.44;;;23.94;43.99
35577;BME280;21680;52.400;16.920;2022-07-29T09:06:32;101116.56;;;23.92;43.92
35577;BME280;21680;52.400;16.920;2022-07-29T09:09:00;101116.08;;;24.02;43.85
35577;BME280;21680;52.400;16.920;2022-07-29T09:11:26;101123.58;;;24.10;43.78
35577;BME280;21680;52.400;16.920;2022-07-29T09:13:53;101123.95;;;24.20;43.66
35577;BME280;21680;52.400;16.920;2022-07-29T09:16:19;101111.74;;;24.34;43.59
35577;BME280;21680;52.400;16.920;2022-07-29T09:18:46;101113.47;;;24.45;43.32
35577;BME280;21680;52.400;16.920;2022-07-29T09:21:14;101114.98;;;24.53;43.22
35577;BME280;21680;52.400;16.920;2022-07-29T09:26:37;101119.02;;;24.68;42.85
35577;BME280;21680;52.400;16.920;2022-07-29T09:29:09;101117.50;;;24.70;42.64
35577;BME280;21680;52.400;16.920;2022-07-29T09:31:39;101124.92;;;24.73;42.47
35577;BME280;21680;52.400;16.920;2022-07-29T09:34:07;101118.56;;;24.82;42.28
35577;BME280;21680;52.400;16.920;2022-07-29T09:36:45;101118.33;;;24.89;42.15
35577;BME280;21680;52.400;16.920;2022-07-29T09:39:13;101113.43;;;25.03;42.08
35577;BME280;21680;52.400;16.920;2022-07-29T09:44:21;101105.27;;;25.07;41.52
35577;BME280;21680;52.400;16.920;2022-07-29T09:47:02;101101.95;;;25.03;41.35
35577;BME280;21680;52.400;16.920;2022-07-29T09:49:33;101097.75;;;25.09;41.30
35577;BME280;21680;52.400;16.920;2022-07-29T09:52:05;101098.02;;;25.15;41.21
35577;BME280;21680;52.400;16.920;2022-07-29T09:54:33;101098.02;;;25.15;40.96
35577;BME280;21680;52.400;16.920;2022-07-29T09:57:05;101091.91;;;25.08;40.71
35577;BME280;21680;52.400;16.920;2022-07-29T09:59:34;101092.20;;;25.05;40.69
35577;BME280;21680;52.400;16.920;2022-07-29T10:02:00;101093.58;;;25.05;40.55
35577;BME280;21680;52.400;16.920;2022-07-29T10:04:41;101087.34;;;25.12;40.51
35577;BME280;21680;52.400;16.920;2022-07-29T10:07:09;101091.61;;;25.11;40.29
35577;BME280;21680;52.400;16.920;2022-07-29T10:09:35;101088.86;;;25.11;40.12
35577;BME280;21680;52.400;16.920;2022-07-29T10:12:12;101083.11;;;25.04;39.96
35577;BME280;21680;52.400;16.920;2022-07-29T10:14:41;101079.86;;;25.05;39.93
35577;BME280;21680;52.400;16.920;2022-07-29T10:17:10;101078.94;;;25.00;39.74
35577;BME280;21680;52.400;16.920;2022-07-29T10:19:37;101081.31;;;24.99;39.63
35577;BME280;21680;52.400;16.920;2022-07-29T10:22:07;101079.08;;;24.89;39.52
35577;BME280;21680;52.400;16.920;2022-07-29T10:24:34;101080.17;;;24.82;39.49
35577;BME280;21680;52.400;16.920;2022-07-29T10:27:02;101083.28;;;24.83;39.55
35577;BME280;21680;52.400;16.920;2022-07-29T10:29:29;101076.75;;;24.94;39.56
35577;BME280;21680;52.400;16.920;2022-07-29T10:32:07;101072.34;;;25.07;39.55
35577;BME280;21680;52.400;16.920;2022-07-29T10:35:08;101060.63;;;25.14;39.39
35577;BME280;21680;52.400;16.920;2022-07-29T10:38:17;101051.88;;;25.15;39.24
35577;BME280;21680;52.400;16.920;2022-07-29T10:40:54;101055.34;;;25.17;38.70
35577;BME280;21680;52.400;16.920;2022-07-29T10:43:41;101059.10;;;25.16;38.89
35577;BME280;21680;52.400;16.920;2022-07-29T10:46:09;101053.01;;;25.22;38.71
35577;BME280;21680;52.400;16.920;2022-07-29T10:52:06;101049.66;;;25.28;38.33
35577;BME280;21680;52.400;16.920;2022-07-29T10:54:43;101049.56;;;25.47;38.15
35577;BME280;21680;52.400;16.920;2022-07-29T10:57:21;101048.36;;;25.73;37.99
35577;BME280;21680;52.400;16.920;2022-07-29T11:05:17;101040.38;;;26.19;36.94
35577;BME280;21680;52.400;16.920;2022-07-29T11:10:43;101044.11;;;26.50;36.60
35577;BME280;21680;52.400;16.920;2022-07-29T11:13:09;101044.46;;;26.51;36.05
35577;BME280;21680;52.400;16.920;2022-07-29T11:15:52;101039.09;;;26.45;35.88
35577;BME280;21680;52.400;16.920;2022-07-29T11:18:20;101043.05;;;26.47;35.73
35577;BME280;21680;52.400;16.920;2022-07-29T11:20:48;101038.52;;;26.60;35.72
35577;BME280;21680;52.400;16.920;2022-07-29T11:26:16;101043.37;;;26.66;35.37
35577;BME280;21680;52.400;16.920;2022-07-29T11:31:34;101042.12;;;26.38;35.29
35577;BME280;21680;52.400;16.920;2022-07-29T11:34:25;101037.17;;;26.42;35.36
35577;BME280;21680;52.400;16.920;2022-07-29T11:39:38;101037.15;;;26.85;35.33
35577;BME280;21680;52.400;16.920;2022-07-29T11:45:06;101031.86;;;27.18;35.07
35577;BME280;21680;52.400;16.920;2022-07-29T11:47:40;101030.24;;;27.41;34.86
35577;BME280;21680;52.400;16.920;2022-07-29T11:50:10;101027.27;;;27.31;34.55
35577;BME280;21680;52.400;16.920;2022-07-29T11:52:42;101023.66;;;27.30;34.42
35577;BME280;21680;52.400;16.920;2022-07-29T11:55:16;101020.24;;;27.36;34.24
35577;BME280;21680;52.400;16.920;2022-07-29T11:57:51;101019.25;;;27.45;34.25
35577;BME280;21680;52.400;16.920;2022-07-29T12:00:35;101015.81;;;27.47;33.90
35577;BME280;21680;52.400;16.920;2022-07-29T12:03:06;101033.19;;;27.48;33.86
35577;BME280;21680;52.400;16.920;2022-07-29T12:05:39;101018.90;;;27.44;33.65
35577;BME280;21680;52.400;16.920;2022-07-29T12:08:10;101019.12;;;27.59;33.55
35577;BME280;21680;52.400;16.920;2022-07-29T12:10:38;101018.86;;;27.78;33.61
35577;BME280;21680;52.400;16.920;2022-07-29T12:13:04;101019.55;;;27.85;33.23
35577;BME280;21680;52.400;16.920;2022-07-29T12:15:31;101015.93;;;27.80;33.00
35577;BME280;21680;52.400;16.920;2022-07-29T12:17:57;101005.27;;;27.85;33.14
35577;BME280;21680;52.400;16.920;2022-07-29T12:20:25;100994.60;;;27.94;32.62
35577;BME280;21680;52.400;16.920;2022-07-29T12:22:53;100999.75;;;27.85;32.34
35577;BME280;21680;52.400;16.920;2022-07-29T12:25:21;100997.84;;;27.73;32.22
35577;BME280;21680;52.400;16.920;2022-07-29T12:28:01;101000.75;;;27.64;31.89
35577;BME280;21680;52.400;16.920;2022-07-29T12:30:37;100998.78;;;27.48;31.82
35577;BME280;21680;52.400;16.920;2022-07-29T12:33:13;100994.22;;;27.27;31.51
35577;BME280;21680;52.400;16.920;2022-07-29T12:35:50;100990.25;;;27.21;31.83
35577;BME280;21680;52.400;16.920;2022-07-29T12:38:18;100989.64;;;27.43;31.88
35577;BME280;21680;52.400;16.920;2022-07-29T12:40:46;100977.33;;;27.60;31.60
35577;BME280;21680;52.400;16.920;2022-07-29T12:43:15;100980.28;;;27.70;31.68
35577;BME280;21680;52.400;16.920;2022-07-29T12:45:46;100977.72;;;27.85;31.58
35577;BME280;21680;52.400;16.920;2022-07-29T12:48:14;100982.20;;;27.90;31.36
35577;BME280;21680;52.400;16.920;2022-07-29T12:50:58;100976.33;;;27.81;31.40
35577;BME280;21680;52.400;16.920;2022-07-29T12:53:28;100977.35;;;27.72;31.30
35577;BME280;21680;52.400;16.920;2022-07-29T12:55:56;100967.04;;;27.86;31.47
35577;BME280;21680;52.400;16.920;2022-07-29T12:58:29;100963.27;;;28.11;31.37
35577;BME280;21680;52.400;16.920;2022-07-29T13:01:09;100968.95;;;28.47;31.34
35577;BME280;21680;52.400;16.920;2022-07-29T13:03:48;100968.86;;;28.87;31.29
35577;BME280;21680;52.400;16.920;2022-07-29T13:06:34;100959.89;;;29.28;31.02
35577;BME280;21680;52.400;16.920;2022-07-29T13:09:16;100958.98;;;29.44;30.51
35577;BME280;21680;52.400;16.920;2022-07-29T13:11:46;100955.34;;;29.39;30.01
35577;BME280;21680;52.400;16.920;2022-07-29T13:20:04;100951.79;;;29.62;29.57
35577;BME280;21680;52.400;16.920;2022-07-29T13:22:31;100956.73;;;29.70;29.42
35577;BME280;21680;52.400;16.920;2022-07-29T13:24:59;100952.26;;;29.43;29.30
35577;BME280;21680;52.400;16.920;2022-07-29T13:27:29;100949.84;;;29.35;29.46
35577;BME280;21680;52.400;16.920;2022-07-29T13:29:59;100950.15;;;29.49;29.38
35577;BME280;21680;52.400;16.920;2022-07-29T13:32:27;100949.13;;;29.72;29.38